sensor_id;sensor_type;location;lat;lon;timestamp;temperature;humidity
17845;DHT22;9047;53.486;10.218;2022-12-29T00:00:13;8.10;99.90
17845;DHT22;9047;53.486;10.218;2022-12-29T00:02:40;8.10;99.90
17845;DHT22;9047;53.486;10.218;2022-12-29T00:05:09;8.10;99.90
17845;DHT22;9047;53.486;10.218;2022-12-29T00:07:36;8.10;99.90
17845;DHT22;9047;53.486;10.218;2022-12-29T00:10:06;8.20;99.90
17845;DHT22;9047;53.486;10.218;2022-12-29T00:12:36;8.20;99.90
17845;DHT22;9047;53.486;10.218;2022-12-29T00:15:20;8.20;99.90
17845;DHT22;9047;53.486;10.218;2022-12-29T00:18:06;8.20;99.90
17845;DHT22;9047;53.486;10.218;2022-12-29T00:20:34;8.30;99.90
17845;DHT22;9047;53.486;10.218;2022-12-29T00:23:19;8.20;99.90
17845;DHT22;9047;53.486;10.218;2022-12-29T00:26:18;8.30;99.90
17845;DHT22;9047;53.486;10.218;2022-12-29T00:29:03;8.30;99.90
17845;DHT22;9047;53.486;10.218;2022-12-29T00:31:59;8.30;99.90
17845;DHT22;9047;53.486;10.218;2022-12-29T00:34:43;8.30;99.90
17845;DHT22;9047;53.486;10.218;2022-12-29T00:37:28;8.30;99.90
17845;DHT22;9047;53.486;10.218;2022-12-29T00:40:09;8.40;99.90
17845;DHT22;9047;53.486;10.218;2022-12-29T00:42:58;8.40;99.90
17845;DHT22;9047;53.486;10.218;2022-12-29T00:45:45;8.40;99.90
17845;DHT22;9047;53.486;10.218;2022-12-29T00:48:14;8.40;99.90
17845;DHT22;9047;53.486;10.218;2022-12-29T00:51:02;8.50;99.90
17845;DHT22;9047;53.486;10.218;2022-12-29T00:53:28;8.40;99.90
17845;DHT22;9047;53.486;10.218;2022-12-29T00:55:55;8.50;99.90
17845;DHT22;9047;53.486;10.218;2022-12-29T00:58:38;8.50;99.90
17845;DHT22;9047;53.486;10.218;2022-12-29T01:01:07;8.50;99.90
17845;DHT22;9047;53.486;10.218;2022-12-29T01:03:37;8.50;99.90
17845;DHT22;9047;53.486;10.218;2022-12-29T01:06:06;8.60;99.90
17845;DHT22;9047;53.486;10.218;2022-12-29T01:08:34;8.60;99.90
17845;DHT22;9047;53.486;10.218;2022-12-29T01:11:03;8.60;99.90
17845;DHT22;9047;53.486;10.218;2022-12-29T01:13:31;8.70;99.90
17845;DHT22;9047;53.486;10.218;2022-12-29T01:16:00;8.70;99.90
17845;DHT22;9047;53.486;10.218;2022-12-29T01:18:29;8.70;99.90
17845;DHT22;9047;53.486;10.218;2022-12-29T01:21:01;8.70;99.90
17845;DHT22;9047;53.486;10.218;2022-12-29T01:23:32;8.70;99.90
17845;DHT22;9047;53.486;10.218;2022-12-29T01:26:08;8.70;99.90
17845;DHT22;9047;53.486;10.218;2022-12-29T01:28:37;8.70;99.90
17845;DHT22;9047;53.486;10.218;2022-12-29T01:31:08;8.70;99.90
17845;DHT22;9047;53.486;10.218;2022-12-29T01:33:35;8.80;99.90
17845;DHT22;9047;53.486;10.218;2022-12-29T01:36:03;8.80;99.90
17845;DHT22;9047;53.486;10.218;2022-12-29T01:38:30;8.90;99.90
17845;DHT22;9047;53.486;10.218;2022-12-29T01:40:57;8.90;99.90
17845;DHT22;9047;53.486;10.218;2022-12-29T01:43:39;8.90;99.90
17845;DHT22;9047;53.486;10.218;2022-12-29T01:46:15;8.80;99.90
17845;DHT22;9047;53.486;10.218;2022-12-29T01:48:51;8.90;99.90
17845;DHT22;9047;53.486;10.218;2022-12-29T01:51:21;8.90;99.90
17845;DHT22;9047;53.486;10.218;2022-12-29T01:53:49;8.90;99.90
17845;DHT22;9047;53.486;10.218;2022-12-29T01:56:17;8.90;99.90
17845;DHT22;9047;53.486;10.218;2022-12-29T01:58:48;8.90;99.90
17845;DHT22;9047;53.486;10.218;2022-12-29T02:01:18;8.90;99.90
17845;DHT22;9047;53.486;10.218;2022-12-29T02:03:46;8.90;99.90
17845;DHT22;9047;53.486;10.218;2022-12-29T02:06:17;8.90;99.90
17845;DHT22;9047;53.486;10.218;2022-12-29T02:08:46;8.90;99.90
17845;DHT22;9047;53.486;10.218;2022-12-29T02:11:14;8.90;99.90
17845;DHT22;9047;53.486;10.218;2022-12-29T02:13:42;8.90;99.90
17845;DHT22;9047;53.486;10.218;2022-12-29T02:16:26;8.90;99.90
17845;DHT22;9047;53.486;10.218;2022-12-29T02:19:18;8.80;99.90
17845;DHT22;9047;53.486;10.218;2022-12-29T02:22:02;8.80;99.90
17845;DHT22;9047;53.486;10.218;2022-12-29T02:27:53;8.90;99.90
17845;DHT22;9047;53.486;10.218;2022-12-29T02:30:36;8.90;99.90
17845;DHT22;9047;53.486;10.218;2022-12-29T02:33:10;8.90;99.90
17845;DHT22;9047;53.486;10.218;2022-12-29T02:35:44;8.80;99.90
17845;DHT22;9047;53.486;10.218;2022-12-29T02:38:20;8.90;99.90
17845;DHT22;9047;53.486;10.218;2022-12-29T02:40:55;8.80;99.90
17845;DHT22;9047;53.486;10.218;2022-12-29T02:43:28;8.80;99.90
17845;DHT22;9047;53.486;10.218;2022-12-29T02:46:06;8.80;99.90
17845;DHT22;9047;53.486;10.218;2022-12-29T02:48:38;8.90;99.90
17845;DHT22;9047;53.486;10.218;2022-12-29T02:51:12;8.80;99.90
17845;DHT22;9047;53.486;10.218;2022-12-29T02:53:41;8.80;99.90
17845;DHT22;9047;53.486;10.218;2022-12-29T02:56:25;8.80;99.90
17845;DHT22;9047;53.486;10.218;2022-12-29T02:58:52;8.80;99.90
17845;DHT22;9047;53.486;10.218;2022-12-29T03:01:39;8.80;99.90
17845;DHT22;9047;53.486;10.218;2022-12-29T03:04:37;8.80;99.90
17845;DHT22;9047;53.486;10.218;2022-12-29T03:07:15;8.80;99.90
17845;DHT22;9047;53.486;10.218;2022-12-29T03:09:49;8.80;99.90
17845;DHT22;9047;53.486;10.218;2022-12-29T03:12:24;8.80;99.90
17845;DHT22;9047;53.486;10.218;2022-12-29T03:15:13;8.80;99.90
17845;DHT22;9047;53.486;10.218;2022-12-29T03:18:06;8.80;99.90
17845;DHT22;9047;53.486;10.218;2022-12-29T03:20:38;8.80;99.90
17845;DHT22;9047;53.486;10.218;2022-12-29T03:23:07;8.80;99.90
17845;DHT22;9047;53.486;10.218;2022-12-29T03:25:39;8.80;99.90
17845;DHT22;9047;53.486;10.218;2022-12-29T03:28:11;8.90;99.90
17845;DHT22;9047;53.486;10.218;2022-12-29T03:30:39;8.90;99.90
17845;DHT22;9047;53.486;10.218;2022-12-29T03:33:12;8.90;99.90
17845;DHT22;9047;53.486;10.218;2022-12-29T03:35:42;8.90;99.90
17845;DHT22;9047;53.486;10.218;2022-12-29T03:38:13;8.90;99.90
17845;DHT22;9047;53.486;10.218;2022-12-29T03:40:44;8.90;99.90
17845;DHT22;9047;53.486;10.218;2022-12-29T03:43:12;8.80;99.90
17845;DHT22;9047;53.486;10.218;2022-12-29T03:45:41;8.80;99.90
17845;DHT22;9047;53.486;10.218;2022-12-29T03:48:09;8.90;99.90
17845;DHT22;9047;53.486;10.218;2022-12-29T03:50:36;8.80;99.90
17845;DHT22;9047;53.486;10.218;2022-12-29T03:53:03;8.90;99.90
17845;DHT22;9047;53.486;10.218;2022-12-29T03:55:30;8.90;99.90
17845;DHT22;9047;53.486;10.218;2022-12-29T03:57:58;8.90;99.90
17845;DHT22;9047;53.486;10.218;2022-12-29T04:00:25;8.90;99.90
17845;DHT22;9047;53.486;10.218;2022-12-29T04:02:52;8.80;99.90
17845;DHT22;9047;53.486;10.218;2022-12-29T04:05:24;8.80;99.90
17845;DHT22;9047;53.486;10.218;2022-12-29T04:07:51;8.80;99.90
17845;DHT22;9047;53.486;10.218;2022-12-29T04:10:18;8.80;99.90
17845;DHT22;9047;53.486;10.218;2022-12-29T04:12:45;8.80;99.90
17845;DHT22;9047;53.486;10.218;2022-12-29T04:15:13;8.90;99.90
17845;DHT22;9047;53.486;10.218;2022-12-29T04:17:40;8.80;99.90
17845;DHT22;9047;53.486;10.218;2022-12-29T04:20:08;8.80;99.90
17845;DHT22;9047;53.486;10.218;2022-12-29T04:23:00;8.80;99.90
17845;DHT22;9047;53.486;10.218;2022-12-29T04:25:28;8.90;99.90
17845;DHT22;9047;53.486;10.218;2022-12-29T04:27:55;8.90;99.90
17845;DHT22;9047;53.486;10.218;2022-12-29T04:30:22;8.90;99.90
17845;DHT22;9047;53.486;10.218;2022-12-29T04:32:50;8.90;99.90
17845;DHT22;9047;53.486;10.218;2022-12-29T04:35:17;8.90;99.90
17845;DHT22;9047;53.486;10.218;2022-12-29T04:37:45;8.90;99.90
17845;DHT22;9047;53.486;10.218;2022-12-29T04:40:14;9.00;99.90
17845;DHT22;9047;53.486;10.218;2022-12-29T04:42:42;9.00;99.90
17845;DHT22;9047;53.486;10.218;2022-12-29T04:45:10;9.00;99.90
17845;DHT22;9047;53.486;10.218;2022-12-29T04:47:39;9.00;99.90
17845;DHT22;9047;53.486;10.218;2022-12-29T04:50:08;9.10;99.90
17845;DHT22;9047;53.486;10.218;2022-12-29T04:52:36;9.10;99.90
17845;DHT22;9047;53.486;10.218;2022-12-29T04:55:05;9.10;99.90
17845;DHT22;9047;53.486;10.218;2022-12-29T04:57:33;9.20;99.90
17845;DHT22;9047;53.486;10.218;2022-12-29T05:00:00;9.30;99.90
17845;DHT22;9047;53.486;10.218;2022-12-29T05:02:28;9.20;99.90
17845;DHT22;9047;53.486;10.218;2022-12-29T05:04:55;9.20;99.90
17845;DHT22;9047;53.486;10.218;2022-12-29T05:07:22;9.30;99.90
17845;DHT22;9047;53.486;10.218;2022-12-29T05:09:52;9.30;99.90
17845;DHT22;9047;53.486;10.218;2022-12-29T05:12:19;9.30;99.90
17845;DHT22;9047;53.486;10.218;2022-12-29T05:14:50;9.30;99.90
17845;DHT22;9047;53.486;10.218;2022-12-29T05:17:17;9.30;99.90
17845;DHT22;9047;53.486;10.218;2022-12-29T05:19:45;9.30;99.90
17845;DHT22;9047;53.486;10.218;2022-12-29T05:22:14;9.40;99.90
17845;DHT22;9047;53.486;10.218;2022-12-29T05:24:42;9.30;99.90
17845;DHT22;9047;53.486;10.218;2022-12-29T05:27:09;9.40;99.90
17845;DHT22;9047;53.486;10.218;2022-12-29T05:29:36;9.40;99.90
17845;DHT22;9047;53.486;10.218;2022-12-29T05:32:05;9.40;99.90
17845;DHT22;9047;53.486;10.218;2022-12-29T05:34:32;9.40;99.90
17845;DHT22;9047;53.486;10.218;2022-12-29T05:36:59;9.40;99.90
17845;DHT22;9047;53.486;10.218;2022-12-29T05:39:28;9.40;99.90
17845;DHT22;9047;53.486;10.218;2022-12-29T05:41:54;9.40;99.90
17845;DHT22;9047;53.486;10.218;2022-12-29T05:44:21;9.40;99.90
17845;DHT22;9047;53.486;10.218;2022-12-29T05:46:48;9.50;99.90
17845;DHT22;9047;53.486;10.218;2022-12-29T05:49:17;9.40;99.90
17845;DHT22;9047;53.486;10.218;2022-12-29T05:51:44;9.50;99.90
17845;DHT22;9047;53.486;10.218;2022-12-29T05:54:12;9.50;99.90
17845;DHT22;9047;53.486;10.218;2022-12-29T05:56:40;9.50;99.90
17845;DHT22;9047;53.486;10.218;2022-12-29T05:59:09;9.60;99.90
17845;DHT22;9047;53.486;10.218;2022-12-29T06:01:36;9.50;99.90
17845;DHT22;9047;53.486;10.218;2022-12-29T06:04:06;9.50;99.90
17845;DHT22;9047;53.486;10.218;2022-12-29T06:06:35;9.50;99.90
17845;DHT22;9047;53.486;10.218;2022-12-29T06:09:02;9.60;99.90
17845;DHT22;9047;53.486;10.218;2022-12-29T06:11:29;9.60;99.90
17845;DHT22;9047;53.486;10.218;2022-12-29T06:13:56;9.60;99.90
17845;DHT22;9047;53.486;10.218;2022-12-29T06:16:22;9.60;99.90
17845;DHT22;9047;53.486;10.218;2022-12-29T06:18:49;9.70;99.90
17845;DHT22;9047;53.486;10.218;2022-12-29T06:21:16;9.60;99.90
17845;DHT22;9047;53.486;10.218;2022-12-29T06:23:45;9.60;99.90
17845;DHT22;9047;53.486;10.218;2022-12-29T06:26:12;9.60;99.90
17845;DHT22;9047;53.486;10.218;2022-12-29T06:28:42;9.60;99.90
17845;DHT22;9047;53.486;10.218;2022-12-29T06:31:10;9.60;99.90
17845;DHT22;9047;53.486;10.218;2022-12-29T06:33:37;9.60;99.90
17845;DHT22;9047;53.486;10.218;2022-12-29T06:36:05;9.50;99.90
17845;DHT22;9047;53.486;10.218;2022-12-29T06:38:33;9.50;99.90
17845;DHT22;9047;53.486;10.218;2022-12-29T06:41:02;9.60;99.90
17845;DHT22;9047;53.486;10.218;2022-12-29T06:43:30;9.60;99.90
17845;DHT22;9047;53.486;10.218;2022-12-29T06:45:57;9.60;99.90
17845;DHT22;9047;53.486;10.218;2022-12-29T06:48:24;9.70;99.90
17845;DHT22;9047;53.486;10.218;2022-12-29T06:50:52;9.70;99.90
17845;DHT22;9047;53.486;10.218;2022-12-29T06:53:22;9.70;99.90
17845;DHT22;9047;53.486;10.218;2022-12-29T06:55:59;9.60;99.90
17845;DHT22;9047;53.486;10.218;2022-12-29T06:58:28;9.60;99.90
17845;DHT22;9047;53.486;10.218;2022-12-29T07:00:57;9.60;99.90
17845;DHT22;9047;53.486;10.218;2022-12-29T07:03:24;9.60;99.90
17845;DHT22;9047;53.486;10.218;2022-12-29T07:05:51;9.50;99.90
17845;DHT22;9047;53.486;10.218;2022-12-29T07:08:19;9.50;99.90
17845;DHT22;9047;53.486;10.218;2022-12-29T07:10:47;9.50;99.90
17845;DHT22;9047;53.486;10.218;2022-12-29T07:13:16;9.50;99.90
17845;DHT22;9047;53.486;10.218;2022-12-29T07:15:44;9.40;99.90
17845;DHT22;9047;53.486;10.218;2022-12-29T07:18:11;9.40;99.90
17845;DHT22;9047;53.486;10.218;2022-12-29T07:20:37;9.40;99.90
17845;DHT22;9047;53.486;10.218;2022-12-29T07:23:05;9.30;99.90
17845;DHT22;9047;53.486;10.218;2022-12-29T07:25:31;9.40;99.90
17845;DHT22;9047;53.486;10.218;2022-12-29T07:28:00;9.30;99.90
17845;DHT22;9047;53.486;10.218;2022-12-29T07:30:27;9.30;99.90
17845;DHT22;9047;53.486;10.218;2022-12-29T07:32:55;9.30;99.90
17845;DHT22;9047;53.486;10.218;2022-12-29T07:35:23;9.30;99.90
17845;DHT22;9047;53.486;10.218;2022-12-29T07:37:49;9.30;99.90
17845;DHT22;9047;53.486;10.218;2022-12-29T07:40:16;9.30;99.90
17845;DHT22;9047;53.486;10.218;2022-12-29T07:42:44;9.40;99.90
17845;DHT22;9047;53.486;10.218;2022-12-29T07:45:11;9.40;99.90
17845;DHT22;9047;53.486;10.218;2022-12-29T07:47:38;9.40;99.90
17845;DHT22;9047;53.486;10.218;2022-12-29T07:50:08;9.50;99.90
17845;DHT22;9047;53.486;10.218;2022-12-29T07:52:34;9.50;99.90
17845;DHT22;9047;53.486;10.218;2022-12-29T07:55:01;9.50;99.90
17845;DHT22;9047;53.486;10.218;2022-12-29T07:57:28;9.50;99.90
17845;DHT22;9047;53.486;10.218;2022-12-29T07:59:55;9.50;99.90
17845;DHT22;9047;53.486;10.218;2022-12-29T08:02:22;9.50;99.90
17845;DHT22;9047;53.486;10.218;2022-12-29T08:04:49;9.50;99.90
17845;DHT22;9047;53.486;10.218;2022-12-29T08:07:19;9.60;99.90
17845;DHT22;9047;53.486;10.218;2022-12-29T08:09:46;9.60;99.90
17845;DHT22;9047;53.486;10.218;2022-12-29T08:12:13;9.60;99.90
17845;DHT22;9047;53.486;10.218;2022-12-29T08:14:41;9.60;99.90
17845;DHT22;9047;53.486;10.218;2022-12-29T08:17:08;9.60;99.90
17845;DHT22;9047;53.486;10.218;2022-12-29T08:19:35;9.60;99.90
17845;DHT22;9047;53.486;10.218;2022-12-29T08:22:02;9.60;99.90
17845;DHT22;9047;53.486;10.218;2022-12-29T08:24:30;9.70;99.90
17845;DHT22;9047;53.486;10.218;2022-12-29T08:26:58;9.60;99.90
17845;DHT22;9047;53.486;10.218;2022-12-29T08:29:25;9.60;99.90
17845;DHT22;9047;53.486;10.218;2022-12-29T08:31:52;9.60;99.90
17845;DHT22;9047;53.486;10.218;2022-12-29T08:34:19;9.60;99.90
17845;DHT22;9047;53.486;10.218;2022-12-29T08:36:47;9.60;99.90
17845;DHT22;9047;53.486;10.218;2022-12-29T08:39:14;9.60;99.90
17845;DHT22;9047;53.486;10.218;2022-12-29T08:41:42;9.50;99.90
17845;DHT22;9047;53.486;10.218;2022-12-29T08:44:10;9.50;99.90
17845;DHT22;9047;53.486;10.218;2022-12-29T08:46:37;9.50;99.90
17845;DHT22;9047;53.486;10.218;2022-12-29T08:49:04;9.60;99.90
17845;DHT22;9047;53.486;10.218;2022-12-29T08:51:31;9.50;99.90
17845;DHT22;9047;53.486;10.218;2022-12-29T08:53:59;9.60;99.90
17845;DHT22;9047;53.486;10.218;2022-12-29T08:56:26;9.60;99.90
17845;DHT22;9047;53.486;10.218;2022-12-29T08:58:54;9.70;99.90
17845;DHT22;9047;53.486;10.218;2022-12-29T09:01:21;9.80;99.90
17845;DHT22;9047;53.486;10.218;2022-12-29T09:03:48;9.90;99.90
17845;DHT22;9047;53.486;10.218;2022-12-29T09:06:16;9.90;99.90
17845;DHT22;9047;53.486;10.218;2022-12-29T09:08:43;9.90;99.90
17845;DHT22;9047;53.486;10.218;2022-12-29T09:11:12;9.80;99.90
17845;DHT22;9047;53.486;10.218;2022-12-29T09:13:39;9.70;99.90
17845;DHT22;9047;53.486;10.218;2022-12-29T09:16:08;9.70;99.90
17845;DHT22;9047;53.486;10.218;2022-12-29T09:18:36;9.70;99.90
17845;DHT22;9047;53.486;10.218;2022-12-29T09:21:05;9.70;99.90
17845;DHT22;9047;53.486;10.218;2022-12-29T09:23:34;9.70;99.90
17845;DHT22;9047;53.486;10.218;2022-12-29T09:26:01;9.70;99.90
17845;DHT22;9047;53.486;10.218;2022-12-29T09:28:28;9.70;99.90
17845;DHT22;9047;53.486;10.218;2022-12-29T09:30:56;9.70;99.90
17845;DHT22;9047;53.486;10.218;2022-12-29T09:33:25;9.80;99.90
17845;DHT22;9047;53.486;10.218;2022-12-29T09:35:53;9.90;99.90
17845;DHT22;9047;53.486;10.218;2022-12-29T09:38:21;10.00;99.90
17845;DHT22;9047;53.486;10.218;2022-12-29T09:40:51;10.00;99.90
17845;DHT22;9047;53.486;10.218;2022-12-29T09:46:19;10.10;99.90
17845;DHT22;9047;53.486;10.218;2022-12-29T09:48:53;10.10;99.90
17845;DHT22;9047;53.486;10.218;2022-12-29T09:51:23;10.20;99.90
17845;DHT22;9047;53.486;10.218;2022-12-29T09:53:53;10.30;99.90
17845;DHT22;9047;53.486;10.218;2022-12-29T09:56:24;10.20;99.90
17845;DHT22;9047;53.486;10.218;2022-12-29T09:58:54;10.30;99.90
17845;DHT22;9047;53.486;10.218;2022-12-29T10:01:28;10.40;99.90
17845;DHT22;9047;53.486;10.218;2022-12-29T10:04:03;10.40;99.90
17845;DHT22;9047;53.486;10.218;2022-12-29T10:06:35;10.50;99.90
17845;DHT22;9047;53.486;10.218;2022-12-29T10:09:10;10.50;99.90
17845;DHT22;9047;53.486;10.218;2022-12-29T10:11:55;10.50;99.90
17845;DHT22;9047;53.486;10.218;2022-12-29T10:14:47;10.50;99.90
17845;DHT22;9047;53.486;10.218;2022-12-29T10:17:29;10.50;99.90
17845;DHT22;9047;53.486;10.218;2022-12-29T10:20:18;10.50;99.90
17845;DHT22;9047;53.486;10.218;2022-12-29T10:23:01;10.60;99.90
17845;DHT22;9047;53.486;10.218;2022-12-29T10:25:34;10.80;99.90
17845;DHT22;9047;53.486;10.218;2022-12-29T10:28:06;10.80;99.90
17845;DHT22;9047;53.486;10.218;2022-12-29T10:30:37;10.80;99.90
17845;DHT22;9047;53.486;10.218;2022-12-29T10:33:07;10.80;99.90
17845;DHT22;9047;53.486;10.218;2022-12-29T10:35:38;10.80;99.90
17845;DHT22;9047;53.486;10.218;2022-12-29T10:38:15;10.80;99.90
17845;DHT22;9047;53.486;10.218;2022-12-29T10:40:49;10.80;99.90
17845;DHT22;9047;53.486;10.218;2022-12-29T10:43:24;10.90;99.90
17845;DHT22;9047;53.486;10.218;2022-12-29T10:45:52;11.10;99.90
17845;DHT22;9047;53.486;10.218;2022-12-29T10:48:22;11.10;99.90
17845;DHT22;9047;53.486;10.218;2022-12-29T10:50:53;11.10;99.90
17845;DHT22;9047;53.486;10.218;2022-12-29T10:53:25;11.10;99.90
17845;DHT22;9047;53.486;10.218;2022-12-29T10:55:55;11.30;99.90
17845;DHT22;9047;53.486;10.218;2022-12-29T10:58:23;11.30;99.90
17845;DHT22;9047;53.486;10.218;2022-12-29T11:00:52;11.40;99.90
17845;DHT22;9047;53.486;10.218;2022-12-29T11:03:44;11.40;99.90
17845;DHT22;9047;53.486;10.218;2022-12-29T11:06:18;11.40;99.90
17845;DHT22;9047;53.486;10.218;2022-12-29T11:08:56;11.30;99.90
17845;DHT22;9047;53.486;10.218;2022-12-29T11:11:26;11.30;99.90
17845;DHT22;9047;53.486;10.218;2022-12-29T11:13:58;11.40;99.90
17845;DHT22;9047;53.486;10.218;2022-12-29T11:16:28;11.40;99.90
17845;DHT22;9047;53.486;10.218;2022-12-29T11:18:56;11.30;99.90
17845;DHT22;9047;53.486;10.218;2022-12-29T11:21:31;11.40;99.90
17845;DHT22;9047;53.486;10.218;2022-12-29T11:24:01;11.40;99.90
17845;DHT22;9047;53.486;10.218;2022-12-29T11:26:29;11.40;99.90
17845;DHT22;9047;53.486;10.218;2022-12-29T11:29:21;11.50;99.90
17845;DHT22;9047;53.486;10.218;2022-12-29T11:31:51;11.30;99.90
17845;DHT22;9047;53.486;10.218;2022-12-29T11:34:21;11.20;99.90
17845;DHT22;9047;53.486;10.218;2022-12-29T11:36:51;11.10;99.90
17845;DHT22;9047;53.486;10.218;2022-12-29T11:39:31;11.10;99.90
17845;DHT22;9047;53.486;10.218;2022-12-29T11:41:59;11.10;99.90
17845;DHT22;9047;53.486;10.218;2022-12-29T11:44:37;11.10;99.90
17845;DHT22;9047;53.486;10.218;2022-12-29T11:47:21;11.10;99.90
17845;DHT22;9047;53.486;10.218;2022-12-29T11:49:51;11.20;99.90
17845;DHT22;9047;53.486;10.218;2022-12-29T11:52:23;11.30;99.90
17845;DHT22;9047;53.486;10.218;2022-12-29T11:54:50;11.20;99.90
17845;DHT22;9047;53.486;10.218;2022-12-29T11:57:19;11.30;99.90
17845;DHT22;9047;53.486;10.218;2022-12-29T11:59:50;11.30;99.90
17845;DHT22;9047;53.486;10.218;2022-12-29T12:02:40;11.30;99.90
17845;DHT22;9047;53.486;10.218;2022-12-29T12:05:25;11.30;99.90
17845;DHT22;9047;53.486;10.218;2022-12-29T12:08:02;11.30;99.90
17845;DHT22;9047;53.486;10.218;2022-12-29T12:10:33;11.20;99.90
17845;DHT22;9047;53.486;10.218;2022-12-29T12:13:08;11.30;99.90
17845;DHT22;9047;53.486;10.218;2022-12-29T12:15:42;11.20;99.90
17845;DHT22;9047;53.486;10.218;2022-12-29T12:18:14;11.10;99.90
17845;DHT22;9047;53.486;10.218;2022-12-29T12:20:45;11.00;99.90
17845;DHT22;9047;53.486;10.218;2022-12-29T12:23:28;10.90;99.90
17845;DHT22;9047;53.486;10.218;2022-12-29T12:26:02;10.90;99.90
17845;DHT22;9047;53.486;10.218;2022-12-29T12:28:37;10.90;99.90
17845;DHT22;9047;53.486;10.218;2022-12-29T12:31:15;10.90;99.90
17845;DHT22;9047;53.486;10.218;2022-12-29T12:33:47;10.90;99.90
17845;DHT22;9047;53.486;10.218;2022-12-29T12:36:30;11.00;99.90
17845;DHT22;9047;53.486;10.218;2022-12-29T12:39:02;11.10;99.90
17845;DHT22;9047;53.486;10.218;2022-12-29T12:41:44;11.20;99.90
17845;DHT22;9047;53.486;10.218;2022-12-29T12:44:19;11.30;99.90
17845;DHT22;9047;53.486;10.218;2022-12-29T12:47:05;11.40;99.90
17845;DHT22;9047;53.486;10.218;2022-12-29T12:50:04;11.40;99.90
17845;DHT22;9047;53.486;10.218;2022-12-29T12:52:46;11.40;99.90
17845;DHT22;9047;53.486;10.218;2022-12-29T12:55:57;11.40;99.90
17845;DHT22;9047;53.486;10.218;2022-12-29T12:58:35;11.40;99.90
17845;DHT22;9047;53.486;10.218;2022-12-29T13:01:11;11.40;99.90
17845;DHT22;9047;53.486;10.218;2022-12-29T13:03:59;11.50;99.90
17845;DHT22;9047;53.486;10.218;2022-12-29T13:06:39;11.40;99.90
17845;DHT22;9047;53.486;10.218;2022-12-29T13:09:43;11.50;99.90
17845;DHT22;9047;53.486;10.218;2022-12-29T13:12:34;11.60;99.90
17845;DHT22;9047;53.486;10.218;2022-12-29T13:15:14;11.70;99.90
17845;DHT22;9047;53.486;10.218;2022-12-29T13:17:55;11.70;99.90
17845;DHT22;9047;53.486;10.218;2022-12-29T13:20:31;11.70;99.90
17845;DHT22;9047;53.486;10.218;2022-12-29T13:23:07;11.60;99.90
17845;DHT22;9047;53.486;10.218;2022-12-29T13:25:41;11.80;99.90
17845;DHT22;9047;53.486;10.218;2022-12-29T13:28:16;11.70;99.90
17845;DHT22;9047;53.486;10.218;2022-12-29T13:30:55;11.70;99.90
17845;DHT22;9047;53.486;10.218;2022-12-29T13:33:31;11.60;99.90
17845;DHT22;9047;53.486;10.218;2022-12-29T13:36:33;11.60;99.90
17845;DHT22;9047;53.486;10.218;2022-12-29T13:39:15;11.60;99.90
17845;DHT22;9047;53.486;10.218;2022-12-29T13:41:46;11.60;99.90
17845;DHT22;9047;53.486;10.218;2022-12-29T13:44:20;11.50;99.90
17845;DHT22;9047;53.486;10.218;2022-12-29T13:46:54;11.50;99.90
17845;DHT22;9047;53.486;10.218;2022-12-29T13:49:27;11.50;99.90
17845;DHT22;9047;53.486;10.218;2022-12-29T13:51:56;11.50;99.90
17845;DHT22;9047;53.486;10.218;2022-12-29T13:54:37;11.50;99.90
17845;DHT22;9047;53.486;10.218;2022-12-29T13:57:14;11.40;99.90
17845;DHT22;9047;53.486;10.218;2022-12-29T13:59:52;11.40;99.90
17845;DHT22;9047;53.486;10.218;2022-12-29T14:02:31;11.30;99.90
17845;DHT22;9047;53.486;10.218;2022-12-29T14:05:29;11.30;99.90
17845;DHT22;9047;53.486;10.218;2022-12-29T14:08:01;11.20;99.90
17845;DHT22;9047;53.486;10.218;2022-12-29T14:10:32;11.10;99.90
17845;DHT22;9047;53.486;10.218;2022-12-29T14:13:04;11.10;99.90
17845;DHT22;9047;53.486;10.218;2022-12-29T14:15:38;11.10;99.90
17845;DHT22;9047;53.486;10.218;2022-12-29T14:18:17;11.00;99.90
17845;DHT22;9047;53.486;10.218;2022-12-29T14:20:53;11.00;99.90
17845;DHT22;9047;53.486;10.218;2022-12-29T14:23:37;11.00;99.90
17845;DHT22;9047;53.486;10.218;2022-12-29T14:26:14;10.90;99.90
17845;DHT22;9047;53.486;10.218;2022-12-29T14:28:44;10.80;99.90
17845;DHT22;9047;53.486;10.218;2022-12-29T14:31:37;10.70;99.90
17845;DHT22;9047;53.486;10.218;2022-12-29T14:34:27;10.50;99.90
17845;DHT22;9047;53.486;10.218;2022-12-29T14:36:57;10.60;99.90
17845;DHT22;9047;53.486;10.218;2022-12-29T14:39:37;10.40;99.90
17845;DHT22;9047;53.486;10.218;2022-12-29T14:42:06;10.30;99.90
17845;DHT22;9047;53.486;10.218;2022-12-29T14:44:47;10.40;99.90
17845;DHT22;9047;53.486;10.218;2022-12-29T14:47:19;10.20;99.90
17845;DHT22;9047;53.486;10.218;2022-12-29T14:49:48;10.10;99.90
17845;DHT22;9047;53.486;10.218;2022-12-29T14:52:19;10.20;99.90
17845;DHT22;9047;53.486;10.218;2022-12-29T14:54:50;10.10;99.90
17845;DHT22;9047;53.486;10.218;2022-12-29T14:57:33;10.00;99.90
17845;DHT22;9047;53.486;10.218;2022-12-29T15:00:12;9.80;99.90
17845;DHT22;9047;53.486;10.218;2022-12-29T15:02:45;9.70;99.90
17845;DHT22;9047;53.486;10.218;2022-12-29T15:05:25;9.60;99.90
17845;DHT22;9047;53.486;10.218;2022-12-29T15:07:55;9.50;99.90
17845;DHT22;9047;53.486;10.218;2022-12-29T15:10:24;9.40;99.90
17845;DHT22;9047;53.486;10.218;2022-12-29T15:12:53;9.30;99.90
17845;DHT22;9047;53.486;10.218;2022-12-29T15:15:23;9.20;99.90
17845;DHT22;9047;53.486;10.218;2022-12-29T15:17:53;9.10;99.90
17845;DHT22;9047;53.486;10.218;2022-12-29T15:20:25;8.90;99.90
17845;DHT22;9047;53.486;10.218;2022-12-29T15:22:57;8.80;99.90
17845;DHT22;9047;53.486;10.218;2022-12-29T15:25:25;8.70;99.90
17845;DHT22;9047;53.486;10.218;2022-12-29T15:27:55;8.60;99.90
17845;DHT22;9047;53.486;10.218;2022-12-29T15:30:23;8.50;99.90
17845;DHT22;9047;53.486;10.218;2022-12-29T15:32:54;8.50;99.90
17845;DHT22;9047;53.486;10.218;2022-12-29T15:35:27;8.50;99.90
17845;DHT22;9047;53.486;10.218;2022-12-29T15:37:55;8.50;99.90
17845;DHT22;9047;53.486;10.218;2022-12-29T15:40:25;8.50;99.90
17845;DHT22;9047;53.486;10.218;2022-12-29T15:43:08;8.50;99.90
17845;DHT22;9047;53.486;10.218;2022-12-29T15:45:37;8.50;99.90
17845;DHT22;9047;53.486;10.218;2022-12-29T15:48:15;8.50;99.90
17845;DHT22;9047;53.486;10.218;2022-12-29T15:50:42;8.60;99.90
17845;DHT22;9047;53.486;10.218;2022-12-29T15:53:15;8.50;99.90
17845;DHT22;9047;53.486;10.218;2022-12-29T15:55:44;8.50;99.90
17845;DHT22;9047;53.486;10.218;2022-12-29T15:58:20;8.50;99.90
17845;DHT22;9047;53.486;10.218;2022-12-29T16:00:49;8.50;99.90
17845;DHT22;9047;53.486;10.218;2022-12-29T16:03:20;8.50;99.90
17845;DHT22;9047;53.486;10.218;2022-12-29T16:05:53;8.60;99.90
17845;DHT22;9047;53.486;10.218;2022-12-29T16:08:29;8.60;99.90
17845;DHT22;9047;53.486;10.218;2022-12-29T16:10:58;8.60;99.90
17845;DHT22;9047;53.486;10.218;2022-12-29T16:13:29;8.60;99.90
17845;DHT22;9047;53.486;10.218;2022-12-29T16:16:00;8.70;99.90
17845;DHT22;9047;53.486;10.218;2022-12-29T16:18:34;8.70;99.90
17845;DHT22;9047;53.486;10.218;2022-12-29T16:21:02;8.60;99.90